sensor_id;sensor_type;location;lat;lon;timestamp;pressure;altitude;pressure_sealevel;temperature;humidity
50634;BME280;36596;55.798;38.462;2022-08-19T00:00:35;100230.16;;;19.69;100.00
50634;BME280;36596;55.798;38.462;2022-08-19T00:03:02;100221.13;;;19.60;100.00
50634;BME280;36596;55.798;38.462;2022-08-19T00:05:29;100230.56;;;19.59;100.00
50634;BME280;36596;55.798;38.462;2022-08-19T00:07:55;100238.81;;;19.67;100.00
50634;BME280;36596;55.798;38.462;2022-08-19T00:10:23;100225.72;;;19.55;100.00
50634;BME280;36596;55.798;38.462;2022-08-19T00:12:50;100237.25;;;19.58;100.00
50634;BME280;36596;55.798;38.462;2022-08-19T00:15:19;100219.84;;;19.36;100.00
50634;BME280;36596;55.798;38.462;2022-08-19T00:17:46;100231.84;;;19.40;100.00
50634;BME280;36596;55.798;38.462;2022-08-19T00:20:15;100251.53;;;19.38;100.00
50634;BME280;36596;55.798;38.462;2022-08-19T00:22:44;100232.56;;;19.28;100.00
50634;BME280;36596;55.798;38.462;2022-08-19T00:25:11;100260.50;;;19.35;100.00
50634;BME280;36596;55.798;38.462;2022-08-19T00:27:37;100246.78;;;19.18;100.00
50634;BME280;36596;55.798;38.462;2022-08-19T00:30:05;100241.03;;;19.02;100.00
50634;BME280;36596;55.798;38.462;2022-08-19T00:32:31;100236.00;;;18.95;100.00
50634;BME280;36596;55.798;38.462;2022-08-19T00:34:57;100280.97;;;19.13;100.00
50634;BME280;36596;55.798;38.462;2022-08-19T00:37:24;100269.81;;;19.01;100.00
50634;BME280;36596;55.798;38.462;2022-08-19T00:39:52;100269.19;;;18.95;100.00
50634;BME280;36596;55.798;38.462;2022-08-19T00:42:20;100286.88;;;19.03;100.00
50634;BME280;36596;55.798;38.462;2022-08-19T00:44:46;100262.03;;;18.85;100.00
50634;BME280;36596;55.798;38.462;2022-08-19T00:47:13;100277.19;;;18.88;100.00
50634;BME280;36596;55.798;38.462;2022-08-19T00:49:47;100301.69;;;18.98;100.00
50634;BME280;36596;55.798;38.462;2022-08-19T00:52:22;100286.28;;;18.89;100.00
50634;BME280;36596;55.798;38.462;2022-08-19T00:54:50;100285.81;;;18.86;100.00
50634;BME280;36596;55.798;38.462;2022-08-19T00:57:24;100297.50;;;18.92;100.00
50634;BME280;36596;55.798;38.462;2022-08-19T00:59:54;100291.81;;;18.89;100.00
50634;BME280;36596;55.798;38.462;2022-08-19T01:02:23;100305.75;;;19.01;100.00
50634;BME280;36596;55.798;38.462;2022-08-19T01:04:49;100275.38;;;18.83;100.00
50634;BME280;36596;55.798;38.462;2022-08-19T01:07:15;100291.63;;;18.94;100.00
50634;BME280;36596;55.798;38.462;2022-08-19T01:09:42;100275.84;;;18.85;100.00
50634;BME280;36596;55.798;38.462;2022-08-19T01:12:08;100278.81;;;18.89;100.00
50634;BME280;36596;55.798;38.462;2022-08-19T01:14:37;100261.06;;;18.81;100.00
50634;BME280;36596;55.798;38.462;2022-08-19T01:17:07;100290.50;;;18.95;100.00
50634;BME280;36596;55.798;38.462;2022-08-19T01:19:39;100300.06;;;18.97;100.00
50634;BME280;36596;55.798;38.462;2022-08-19T01:24:49;100269.34;;;18.81;100.00
50634;BME280;36596;55.798;38.462;2022-08-19T01:27:16;100277.19;;;18.79;100.00
50634;BME280;36596;55.798;38.462;2022-08-19T01:29:43;100271.31;;;18.81;100.00
50634;BME280;36596;55.798;38.462;2022-08-19T01:32:13;100274.88;;;18.81;100.00
50634;BME280;36596;55.798;38.462;2022-08-19T01:34:40;100294.91;;;18.87;100.00
50634;BME280;36596;55.798;38.462;2022-08-19T01:37:08;100285.50;;;18.71;100.00
50634;BME280;36596;55.798;38.462;2022-08-19T01:39:38;100304.66;;;18.84;100.00
50634;BME280;36596;55.798;38.462;2022-08-19T01:42:04;100289.69;;;18.77;100.00
50634;BME280;36596;55.798;38.462;2022-08-19T01:44:33;100310.69;;;18.86;100.00
50634;BME280;36596;55.798;38.462;2022-08-19T01:46:58;100303.69;;;18.89;100.00
50634;BME280;36596;55.798;38.462;2022-08-19T01:49:25;100285.97;;;18.73;100.00
50634;BME280;36596;55.798;38.462;2022-08-19T01:51:55;100295.22;;;18.77;100.00
50634;BME280;36596;55.798;38.462;2022-08-19T01:54:23;100303.69;;;18.80;100.00
50634;BME280;36596;55.798;38.462;2022-08-19T01:56:57;100280.97;;;18.66;100.00
50634;BME280;36596;55.798;38.462;2022-08-19T01:59:26;100302.09;;;18.71;100.00
50634;BME280;36596;55.798;38.462;2022-08-19T02:01:52;100305.19;;;18.69;100.00
50634;BME280;36596;55.798;38.462;2022-08-19T02:04:18;100298.53;;;18.61;100.00
50634;BME280;36596;55.798;38.462;2022-08-19T02:06:44;100312.00;;;18.72;100.00
50634;BME280;36596;55.798;38.462;2022-08-19T02:09:10;100324.81;;;18.76;100.00
50634;BME280;36596;55.798;38.462;2022-08-19T02:11:37;100314.75;;;18.72;100.00
50634;BME280;36596;55.798;38.462;2022-08-19T02:14:05;100318.03;;;18.65;100.00
50634;BME280;36596;55.798;38.462;2022-08-19T02:16:34;100292.38;;;18.47;100.00
50634;BME280;36596;55.798;38.462;2022-08-19T02:19:02;100313.03;;;18.49;100.00
50634;BME280;36596;55.798;38.462;2022-08-19T02:21:29;100318.22;;;18.51;100.00
50634;BME280;36596;55.798;38.462;2022-08-19T02:23:55;100320.34;;;18.45;100.00
50634;BME280;36596;55.798;38.462;2022-08-19T02:26:23;100300.53;;;18.34;100.00
50634;BME280;36596;55.798;38.462;2022-08-19T02:28:52;100297.94;;;18.29;100.00
50634;BME280;36596;55.798;38.462;2022-08-19T02:31:22;100316.13;;;18.39;100.00
50634;BME280;36596;55.798;38.462;2022-08-19T02:33:48;100308.19;;;18.38;100.00
50634;BME280;36596;55.798;38.462;2022-08-19T02:36:16;100339.50;;;18.50;100.00
50634;BME280;36596;55.798;38.462;2022-08-19T02:38:43;100316.28;;;18.34;100.00
50634;BME280;36596;55.798;38.462;2022-08-19T02:41:19;100344.88;;;18.56;100.00
50634;BME280;36596;55.798;38.462;2022-08-19T02:43:46;100315.31;;;18.39;100.00
50634;BME280;36596;55.798;38.462;2022-08-19T02:46:14;100312.41;;;18.35;100.00
50634;BME280;36596;55.798;38.462;2022-08-19T02:48:50;100338.69;;;18.50;100.00
50634;BME280;36596;55.798;38.462;2022-08-19T02:51:21;100326.84;;;18.49;100.00
50634;BME280;36596;55.798;38.462;2022-08-19T02:53:50;100341.59;;;18.62;100.00
50634;BME280;36596;55.798;38.462;2022-08-19T02:56:18;100339.34;;;18.56;100.00
50634;BME280;36596;55.798;38.462;2022-08-19T02:58:46;100346.97;;;18.59;100.00
50634;BME280;36596;55.798;38.462;2022-08-19T03:01:25;100351.97;;;18.83;100.00
50634;BME280;36596;55.798;38.462;2022-08-19T03:03:51;100335.91;;;18.59;100.00
50634;BME280;36596;55.798;38.462;2022-08-19T03:06:18;100342.09;;;18.56;100.00
50634;BME280;36596;55.798;38.462;2022-08-19T03:08:45;100344.69;;;18.61;100.00
50634;BME280;36596;55.798;38.462;2022-08-19T03:11:23;100347.75;;;18.68;100.00
50634;BME280;36596;55.798;38.462;2022-08-19T03:13:49;100340.78;;;18.62;100.00
50634;BME280;36596;55.798;38.462;2022-08-19T03:16:18;100335.25;;;18.62;100.00
50634;BME280;36596;55.798;38.462;2022-08-19T03:18:44;100327.94;;;18.66;100.00
50634;BME280;36596;55.798;38.462;2022-08-19T03:21:15;100365.63;;;18.88;100.00
50634;BME280;36596;55.798;38.462;2022-08-19T03:23:41;100351.66;;;18.84;100.00
50634;BME280;36596;55.798;38.462;2022-08-19T03:26:08;100350.03;;;18.92;100.00
50634;BME280;36596;55.798;38.462;2022-08-19T03:28:34;100344.97;;;18.94;100.00
50634;BME280;36596;55.798;38.462;2022-08-19T03:31:10;100356.13;;;19.15;100.00
50634;BME280;36596;55.798;38.462;2022-08-19T03:33:38;100332.25;;;19.11;100.00
50634;BME280;36596;55.798;38.462;2022-08-19T03:38:31;100332.38;;;19.14;100.00
50634;BME280;36596;55.798;38.462;2022-08-19T03:41:05;100323.88;;;19.19;100.00
50634;BME280;36596;55.798;38.462;2022-08-19T03:43:34;100341.56;;;19.36;100.00
50634;BME280;36596;55.798;38.462;2022-08-19T03:46:17;100327.84;;;19.39;100.00
50634;BME280;36596;55.798;38.462;2022-08-19T03:48:47;100330.09;;;19.46;100.00
50634;BME280;36596;55.798;38.462;2022-08-19T03:51:19;100337.34;;;19.60;100.00
50634;BME280;36596;55.798;38.462;2022-08-19T03:53:48;100325.16;;;19.61;100.00
50634;BME280;36596;55.798;38.462;2022-08-19T03:56:16;100347.00;;;19.83;100.00
50634;BME280;36596;55.798;38.462;2022-08-19T03:58:42;100354.72;;;19.99;100.00
50634;BME280;36596;55.798;38.462;2022-08-19T04:01:19;100329.94;;;20.02;100.00
50634;BME280;36596;55.798;38.462;2022-08-19T04:03:46;100319.19;;;20.01;100.00
50634;BME280;36596;55.798;38.462;2022-08-19T04:06:21;100316.00;;;20.11;100.00
50634;BME280;36596;55.798;38.462;2022-08-19T04:08:51;100328.56;;;20.30;100.00
50634;BME280;36596;55.798;38.462;2022-08-19T04:11:26;100317.88;;;20.40;100.00
50634;BME280;36596;55.798;38.462;2022-08-19T04:13:54;100324.47;;;20.48;100.00
50634;BME280;36596;55.798;38.462;2022-08-19T04:16:23;100303.56;;;20.38;100.00
50634;BME280;36596;55.798;38.462;2022-08-19T04:18:50;100310.84;;;20.43;100.00
50634;BME280;36596;55.798;38.462;2022-08-19T04:21:22;100327.50;;;20.55;100.00
50634;BME280;36596;55.798;38.462;2022-08-19T04:23:48;100325.06;;;20.54;100.00
50634;BME280;36596;55.798;38.462;2022-08-19T04:26:28;100350.22;;;20.70;100.00
50634;BME280;36596;55.798;38.462;2022-08-19T04:28:59;100331.44;;;20.54;100.00
50634;BME280;36596;55.798;38.462;2022-08-19T04:31:29;100323.03;;;20.63;100.00
50634;BME280;36596;55.798;38.462;2022-08-19T04:33:58;100327.75;;;20.63;100.00
50634;BME280;36596;55.798;38.462;2022-08-19T04:36:27;100334.06;;;20.72;100.00
50634;BME280;36596;55.798;38.462;2022-08-19T04:39:00;100322.09;;;20.59;100.00
50634;BME280;36596;55.798;38.462;2022-08-19T04:41:27;100355.22;;;20.89;100.00
50634;BME280;36596;55.798;38.462;2022-08-19T04:44:12;100330.72;;;20.78;100.00
50634;BME280;36596;55.798;38.462;2022-08-19T04:46:38;100333.53;;;20.91;100.00
50634;BME280;36596;55.798;38.462;2022-08-19T04:49:06;100336.19;;;21.00;100.00
50634;BME280;36596;55.798;38.462;2022-08-19T04:51:34;100360.94;;;21.42;100.00
50634;BME280;36596;55.798;38.462;2022-08-19T04:54:02;100325.09;;;21.12;100.00
50634;BME280;36596;55.798;38.462;2022-08-19T04:56:30;100337.72;;;21.22;100.00
50634;BME280;36596;55.798;38.462;2022-08-19T04:58:57;100330.53;;;21.21;100.00
50634;BME280;36596;55.798;38.462;2022-08-19T05:01:27;100329.03;;;21.36;100.00
50634;BME280;36596;55.798;38.462;2022-08-19T05:03:55;100327.78;;;21.45;100.00
50634;BME280;36596;55.798;38.462;2022-08-19T05:06:24;100331.16;;;21.51;100.00
50634;BME280;36596;55.798;38.462;2022-08-19T05:08:51;100339.94;;;21.66;100.00
50634;BME280;36596;55.798;38.462;2022-08-19T05:11:23;100338.75;;;21.79;100.00
50634;BME280;36596;55.798;38.462;2022-08-19T05:13:52;100321.53;;;21.73;100.00
50634;BME280;36596;55.798;38.462;2022-08-19T05:16:20;100361.25;;;22.02;100.00
50634;BME280;36596;55.798;38.462;2022-08-19T05:18:47;100318.72;;;21.86;100.00
50634;BME280;36596;55.798;38.462;2022-08-19T05:21:33;100335.00;;;21.99;100.00
50634;BME280;36596;55.798;38.462;2022-08-19T05:24:22;100328.97;;;21.97;100.00
50634;BME280;36596;55.798;38.462;2022-08-19T05:26:50;100342.59;;;22.15;100.00
50634;BME280;36596;55.798;38.462;2022-08-19T05:29:20;100307.88;;;22.09;100.00
50634;BME280;36596;55.798;38.462;2022-08-19T05:31:47;100316.88;;;22.18;100.00
50634;BME280;36596;55.798;38.462;2022-08-19T05:34:18;100320.13;;;22.20;100.00
50634;BME280;36596;55.798;38.462;2022-08-19T05:36:47;100333.69;;;22.50;100.00
50634;BME280;36596;55.798;38.462;2022-08-19T05:39:18;100318.97;;;22.49;100.00
50634;BME280;36596;55.798;38.462;2022-08-19T05:41:54;100335.91;;;22.73;100.00
50634;BME280;36596;55.798;38.462;2022-08-19T05:44:25;100311.75;;;22.61;100.00
50634;BME280;36596;55.798;38.462;2022-08-19T05:46:52;100336.72;;;22.89;100.00
50634;BME280;36596;55.798;38.462;2022-08-19T05:49:20;100321.38;;;22.95;100.00
50634;BME280;36596;55.798;38.462;2022-08-19T05:51:47;100337.91;;;23.20;100.00
50634;BME280;36596;55.798;38.462;2022-08-19T05:54:13;100324.06;;;23.24;100.00
50634;BME280;36596;55.798;38.462;2022-08-19T05:56:41;100356.41;;;23.44;100.00
50634;BME280;36596;55.798;38.462;2022-08-19T05:59:09;100326.31;;;23.34;100.00
50634;BME280;36596;55.798;38.462;2022-08-19T06:01:37;100340.72;;;23.71;100.00
50634;BME280;36596;55.798;38.462;2022-08-19T06:04:05;100324.91;;;23.40;100.00
50634;BME280;36596;55.798;38.462;2022-08-19T06:06:32;100317.34;;;23.25;100.00
50634;BME280;36596;55.798;38.462;2022-08-19T06:09:01;100325.69;;;23.41;100.00
50634;BME280;36596;55.798;38.462;2022-08-19T06:11:38;100329.19;;;23.53;100.00
50634;BME280;36596;55.798;38.462;2022-08-19T06:14:11;100349.81;;;23.68;100.00
50634;BME280;36596;55.798;38.462;2022-08-19T06:16:39;100323.31;;;23.59;100.00
50634;BME280;36596;55.798;38.462;2022-08-19T06:19:14;100331.63;;;23.74;100.00
50634;BME280;36596;55.798;38.462;2022-08-19T06:21:44;100337.13;;;23.87;100.00
50634;BME280;36596;55.798;38.462;2022-08-19T06:24:16;100328.78;;;23.87;100.00
50634;BME280;36596;55.798;38.462;2022-08-19T06:26:45;100322.25;;;23.99;100.00
50634;BME280;36596;55.798;38.462;2022-08-19T06:29:15;100325.25;;;24.10;100.00
50634;BME280;36596;55.798;38.462;2022-08-19T06:31:45;100344.31;;;24.47;100.00
50634;BME280;36596;55.798;38.462;2022-08-19T06:34:12;100323.34;;;24.53;100.00
50634;BME280;36596;55.798;38.462;2022-08-19T06:36:41;100329.50;;;24.62;100.00
50634;BME280;36596;55.798;38.462;2022-08-19T06:39:14;100324.31;;;24.60;100.00
50634;BME280;36596;55.798;38.462;2022-08-19T06:41:44;100325.69;;;24.70;100.00
50634;BME280;36596;55.798;38.462;2022-08-19T06:44:19;100319.22;;;24.66;100.00
50634;BME280;36596;55.798;38.462;2022-08-19T06:46:45;100309.19;;;24.62;100.00
50634;BME280;36596;55.798;38.462;2022-08-19T06:49:11;100329.22;;;24.67;100.00
50634;BME280;36596;55.798;38.462;2022-08-19T06:51:41;100326.19;;;24.56;100.00
50634;BME280;36596;55.798;38.462;2022-08-19T06:54:08;100326.19;;;24.56;100.00
50634;BME280;36596;55.798;38.462;2022-08-19T06:56:34;100330.31;;;24.63;100.00
50634;BME280;36596;55.798;38.462;2022-08-19T06:59:08;100317.97;;;24.64;100.00
50634;BME280;36596;55.798;38.462;2022-08-19T07:01:39;100324.94;;;24.73;100.00
50634;BME280;36596;55.798;38.462;2022-08-19T07:04:08;100320.94;;;24.74;100.00
50634;BME280;36596;55.798;38.462;2022-08-19T07:06:35;100343.13;;;24.87;100.00
50634;BME280;36596;55.798;38.462;2022-08-19T07:09:04;100341.81;;;24.81;100.00
50634;BME280;36596;55.798;38.462;2022-08-19T07:11:31;100311.63;;;24.86;100.00
50634;BME280;36596;55.798;38.462;2022-08-19T07:13:59;100354.09;;;25.22;100.00
50634;BME280;36596;55.798;38.462;2022-08-19T07:16:25;100346.88;;;25.44;100.00
50634;BME280;36596;55.798;38.462;2022-08-19T07:18:52;100329.69;;;25.69;100.00
50634;BME280;36596;55.798;38.462;2022-08-19T07:21:25;100314.00;;;25.88;100.00
50634;BME280;36596;55.798;38.462;2022-08-19T07:23:58;100327.38;;;26.02;100.00
50634;BME280;36596;55.798;38.462;2022-08-19T07:26:29;100330.84;;;26.25;100.00
50634;BME280;36596;55.798;38.462;2022-08-19T07:28:56;100309.22;;;26.19;100.00
50634;BME280;36596;55.798;38.462;2022-08-19T07:31:27;100330.50;;;26.27;100.00
50634;BME280;36596;55.798;38.462;2022-08-19T07:33:56;100302.53;;;26.27;100.00
50634;BME280;36596;55.798;38.462;2022-08-19T07:36:27;100327.91;;;26.45;100.00
50634;BME280;36596;55.798;38.462;2022-08-19T07:38:59;100312.75;;;26.49;100.00
50634;BME280;36596;55.798;38.462;2022-08-19T07:41:28;100329.97;;;26.51;100.00
50634;BME280;36596;55.798;38.462;2022-08-19T07:43:59;100349.81;;;26.73;100.00
50634;BME280;36596;55.798;38.462;2022-08-19T07:46:33;100311.53;;;26.47;100.00
50634;BME280;36596;55.798;38.462;2022-08-19T07:49:00;100320.31;;;26.45;100.00
50634;BME280;36596;55.798;38.462;2022-08-19T07:51:27;100326.66;;;26.42;100.00
50634;BME280;36596;55.798;38.462;2022-08-19T07:53:54;100316.47;;;26.23;100.00
50634;BME280;36596;55.798;38.462;2022-08-19T07:56:21;100347.41;;;26.41;100.00
50634;BME280;36596;55.798;38.462;2022-08-19T07:58:50;100304.28;;;26.42;100.00
50634;BME280;36596;55.798;38.462;2022-08-19T08:01:20;100348.75;;;26.51;100.00
50634;BME280;36596;55.798;38.462;2022-08-19T08:03:48;100321.94;;;26.12;100.00
50634;BME280;36596;55.798;38.462;2022-08-19T08:06:37;100339.47;;;26.09;100.00
50634;BME280;36596;55.798;38.462;2022-08-19T08:09:26;100302.75;;;25.84;100.00
50634;BME280;36596;55.798;38.462;2022-08-19T08:12:06;100346.66;;;26.10;100.00
50634;BME280;36596;55.798;38.462;2022-08-19T08:14:45;100347.63;;;26.25;100.00
50634;BME280;36596;55.798;38.462;2022-08-19T08:17:22;100340.38;;;26.21;100.00
50634;BME280;36596;55.798;38.462;2022-08-19T08:19:49;100340.06;;;26.26;100.00
50634;BME280;36596;55.798;38.462;2022-08-19T08:22:21;100344.09;;;26.28;100.00
50634;BME280;36596;55.798;38.462;2022-08-19T08:25:08;100366.50;;;26.32;100.00
50634;BME280;36596;55.798;38.462;2022-08-19T08:27:42;100353.00;;;26.38;100.00
50634;BME280;36596;55.798;38.462;2022-08-19T08:30:11;100359.47;;;26.45;100.00
50634;BME280;36596;55.798;38.462;2022-08-19T08:32:39;100355.44;;;26.43;100.00
50634;BME280;36596;55.798;38.462;2022-08-19T08:35:07;100364.28;;;26.82;100.00
50634;BME280;36596;55.798;38.462;2022-08-19T08:37:34;100355.13;;;26.51;100.00
50634;BME280;36596;55.798;38.462;2022-08-19T08:40:09;100325.34;;;26.32;100.00
50634;BME280;36596;55.798;38.462;2022-08-19T08:42:50;100330.56;;;26.34;100.00
50634;BME280;36596;55.798;38.462;2022-08-19T08:45:20;100327.06;;;26.44;100.00
50634;BME280;36596;55.798;38.462;2022-08-19T08:47:49;100357.78;;;26.71;100.00
50634;BME280;36596;55.798;38.462;2022-08-19T08:50:25;100348.63;;;26.74;100.00
50634;BME280;36596;55.798;38.462;2022-08-19T08:52:58;100340.22;;;26.74;100.00
50634;BME280;36596;55.798;38.462;2022-08-19T08:55:28;100341.88;;;26.79;100.00
50634;BME280;36596;55.798;38.462;2022-08-19T08:58:00;100347.94;;;26.84;100.00
50634;BME280;36596;55.798;38.462;2022-08-19T09:00:32;100325.47;;;26.77;100.00
50634;BME280;36596;55.798;38.462;2022-08-19T09:03:00;100346.09;;;26.65;98.81
50634;BME280;36596;55.798;38.462;2022-08-19T09:08:45;100370.22;;;27.67;94.33
50634;BME280;36596;55.798;38.462;2022-08-19T09:16:41;100359.94;;;27.85;83.38
50634;BME280;36596;55.798;38.462;2022-08-19T09:19:08;100355.97;;;27.90;81.71
50634;BME280;36596;55.798;38.462;2022-08-19T09:21:38;100342.84;;;28.05;72.04
50634;BME280;36596;55.798;38.462;2022-08-19T09:24:07;100333.75;;;28.37;70.92
50634;BME280;36596;55.798;38.462;2022-08-19T09:26:33;100357.16;;;28.81;70.74
50634;BME280;36596;55.798;38.462;2022-08-19T09:29:02;100349.94;;;28.94;72.48
50634;BME280;36596;55.798;38.462;2022-08-19T09:31:31;100355.56;;;29.05;73.75
50634;BME280;36596;55.798;38.462;2022-08-19T09:33:59;100369.22;;;29.03;75.50
50634;BME280;36596;55.798;38.462;2022-08-19T09:36:33;100361.97;;;28.94;76.65
50634;BME280;36596;55.798;38.462;2022-08-19T09:39:03;100369.19;;;28.88;75.79
50634;BME280;36596;55.798;38.462;2022-08-19T09:41:29;100372.00;;;29.06;76.62
50634;BME280;36596;55.798;38.462;2022-08-19T09:43:56;100353.19;;;29.14;75.16
50634;BME280;36596;55.798;38.462;2022-08-19T09:46:25;100362.00;;;29.05;73.31
50634;BME280;36596;55.798;38.462;2022-08-19T09:48:59;100372.03;;;29.21;73.13
50634;BME280;36596;55.798;38.462;2022-08-19T09:51:26;100349.19;;;29.26;73.45
50634;BME280;36596;55.798;38.462;2022-08-19T09:54:00;100362.81;;;29.38;73.19
50634;BME280;36596;55.798;38.462;2022-08-19T09:56:27;100376.84;;;29.71;72.31
50634;BME280;36596;55.798;38.462;2022-08-19T09:58:58;100374.03;;;29.85;66.55
50634;BME280;36596;55.798;38.462;2022-08-19T10:01:27;100367.22;;;29.64;68.71
50634;BME280;36596;55.798;38.462;2022-08-19T10:03:57;100361.63;;;29.36;70.30
50634;BME280;36596;55.798;38.462;2022-08-19T10:06:26;100378.06;;;29.55;71.06
50634;BME280;36596;55.798;38.462;2022-08-19T10:08:56;100370.84;;;29.51;68.80
50634;BME280;36596;55.798;38.462;2022-08-19T10:11:22;100372.84;;;29.54;67.60
50634;BME280;36596;55.798;38.462;2022-08-19T10:13:48;100367.63;;;29.56;67.79
50634;BME280;36596;55.798;38.462;2022-08-19T10:16:21;100384.88;;;29.54;68.09
50634;BME280;36596;55.798;38.462;2022-08-19T10:18:49;100386.50;;;29.55;67.42
50634;BME280;36596;55.798;38.462;2022-08-19T10:21:22;100403.34;;;29.88;67.00
50634;BME280;36596;55.798;38.462;2022-08-19T10:23:51;100367.53;;;30.13;62.14
50634;BME280;36596;55.798;38.462;2022-08-19T10:26:24;100388.88;;;29.96;61.97
50634;BME280;36596;55.798;38.462;2022-08-19T10:28:53;100384.03;;;30.04;62.40
50634;BME280;36596;55.798;38.462;2022-08-19T10:31:27;100383.19;;;30.18;62.17
50634;BME280;36596;55.798;38.462;2022-08-19T10:33:57;100401.22;;;30.31;62.99
50634;BME280;36596;55.798;38.462;2022-08-19T10:36:30;100399.16;;;30.50;65.92
50634;BME280;36596;55.798;38.462;2022-08-19T10:38:59;100382.72;;;30.41;67.63
50634;BME280;36596;55.798;38.462;2022-08-19T10:41:30;100403.59;;;30.40;68.76
50634;BME280;36596;55.798;38.462;2022-08-19T10:44:05;100404.88;;;30.21;70.95
50634;BME280;36596;55.798;38.462;2022-08-19T10:46:35;100406.13;;;29.91;72.61
50634;BME280;36596;55.798;38.462;2022-08-19T10:49:04;100404.13;;;29.99;74.33
50634;BME280;36596;55.798;38.462;2022-08-19T10:51:31;100399.66;;;30.09;74.86
50634;BME280;36596;55.798;38.462;2022-08-19T10:54:17;100422.53;;;30.29;73.90
50634;BME280;36596;55.798;38.462;2022-08-19T10:56:44;100387.91;;;30.46;73.70
50634;BME280;36596;55.798;38.462;2022-08-19T10:59:20;100414.19;;;30.96;74.08
50634;BME280;36596;55.798;38.462;2022-08-19T11:01:47;100380.59;;;31.27;72.66
50634;BME280;36596;55.798;38.462;2022-08-19T11:04:14;100378.78;;;31.47;72.27
50634;BME280;36596;55.798;38.462;2022-08-19T11:07:14;100390.69;;;32.08;71.76
50634;BME280;36596;55.798;38.462;2022-08-19T11:09:57;100399.13;;;32.11;71.78
50634;BME280;36596;55.798;38.462;2022-08-19T11:12:25;100387.53;;;31.64;72.80
50634;BME280;36596;55.798;38.462;2022-08-19T11:14:53;100364.38;;;31.83;73.28
50634;BME280;36596;55.798;38.462;2022-08-19T11:17:28;100380.06;;;32.53;72.16
50634;BME280;36596;55.798;38.462;2022-08-19T11:19:58;100354.53;;;32.64;71.20
50634;BME280;36596;55.798;38.462;2022-08-19T11:22:28;100366.78;;;32.81;70.95
50634;BME280;36596;55.798;38.462;2022-08-19T11:24:55;100371.59;;;32.84;70.70
50634;BME280;36596;55.798;38.462;2022-08-19T11:27:23;100376.00;;;33.13;70.04
50634;BME280;36596;55.798;38.462;2022-08-19T11:29:49;100361.50;;;33.10;69.75
50634;BME280;36596;55.798;38.462;2022-08-19T11:32:17;100387.47;;;33.76;69.03
50634;BME280;36596;55.798;38.462;2022-08-19T11:34:42;100363.19;;;33.32;68.79
50634;BME280;36596;55.798;38.462;2022-08-19T11:37:10;100366.97;;;32.70;70.58
50634;BME280;36596;55.798;38.462;2022-08-19T11:39:36;100385.25;;;32.58;71.62
50634;BME280;36596;55.798;38.462;2022-08-19T11:42:04;100389.28;;;32.57;72.11
50634;BME280;36596;55.798;38.462;2022-08-19T11:44:52;100383.38;;;32.79;71.53
50634;BME280;36596;55.798;38.462;2022-08-19T11:47:19;100392.81;;;32.69;71.96
50634;BME280;36596;55.798;38.462;2022-08-19T11:49:46;100389.34;;;32.85;71.67
50634;BME280;36596;55.798;38.462;2022-08-19T11:52:11;100391.94;;;32.72;71.62
50634;BME280;36596;55.798;38.462;2022-08-19T11:54:37;100375.00;;;32.72;72.19
50634;BME280;36596;55.798;38.462;2022-08-19T11:57:04;100377.66;;;32.83;71.49
50634;BME280;36596;55.798;38.462;2022-08-19T11:59:30;100366.97;;;32.70;71.79
50634;BME280;36596;55.798;38.462;2022-08-19T12:01:56;100368.41;;;32.51;72.59
50634;BME280;36596;55.798;38.462;2022-08-19T12:04:23;100364.28;;;32.87;71.78
50634;BME280;36596;55.798;38.462;2022-08-19T12:06:51;100378.84;;;33.13;71.13
50634;BME280;36596;55.798;38.462;2022-08-19T12:09:18;100381.50;;;33.23;70.70
50634;BME280;36596;55.798;38.462;2022-08-19T12:11:49;100389.03;;;33.06;70.97
50634;BME280;36596;55.798;38.462;2022-08-19T12:14:16;100374.94;;;32.75;71.29
50634;BME280;36596;55.798;38.462;2022-08-19T12:16:44;100378.63;;;33.00;72.00
50634;BME280;36596;55.798;38.462;2022-08-19T12:19:12;100391.22;;;32.64;72.38
50634;BME280;36596;55.798;38.462;2022-08-19T12:21:39;100379.47;;;32.04;73.74
50634;BME280;36596;55.798;38.462;2022-08-19T12:24:07;100372.00;;;31.86;75.59
50634;BME280;36596;55.798;38.462;2022-08-19T12:26:34;100374.97;;;31.72;76.43
50634;BME280;36596;55.798;38.462;2022-08-19T12:29:00;100371.66;;;31.32;77.81
50634;BME280;36596;55.798;38.462;2022-08-19T12:31:27;100381.53;;;31.06;79.33
50634;BME280;36596;55.798;38.462;2022-08-19T12:33:54;100389.44;;;30.62;80.84
50634;BME280;36596;55.798;38.462;2022-08-19T12:36:22;100381.56;;;30.24;83.46
50634;BME280;36596;55.798;38.462;2022-08-19T12:38:48;100384.44;;;30.03;85.23
50634;BME280;36596;55.798;38.462;2022-08-19T12:41:16;100382.84;;;29.91;86.30
50634;BME280;36596;55.798;38.462;2022-08-19T12:43:44;100380.47;;;29.78;87.81
50634;BME280;36596;55.798;38.462;2022-08-19T12:46:11;100394.47;;;30.00;88.17
50634;BME280;36596;55.798;38.462;2022-08-19T12:48:39;100383.16;;;30.22;86.42
50634;BME280;36596;55.798;38.462;2022-08-19T12:51:13;100392.34;;;30.44;85.84
50634;BME280;36596;55.798;38.462;2022-08-19T12:53:40;100375.38;;;30.62;86.50
50634;BME280;36596;55.798;38.462;2022-08-19T12:56:08;100382.63;;;30.56;86.37
50634;BME280;36596;55.798;38.462;2022-08-19T12:58:34;100384.69;;;30.52;87.28